sensor_id;sensor_type;location;lat;lon;timestamp;temperature;humidity
9987;DHT22;5033;46.310;11.214;2022-08-21T00:02:02;21.40;99.90
9987;DHT22;5033;46.310;11.214;2022-08-21T00:04:33;21.40;99.90
9987;DHT22;5033;46.310;11.214;2022-08-21T00:07:02;21.40;99.90
9987;DHT22;5033;46.310;11.214;2022-08-21T00:09:29;21.40;99.90
9987;DHT22;5033;46.310;11.214;2022-08-21T00:11:58;21.30;99.90
9987;DHT22;5033;46.310;11.214;2022-08-21T00:14:27;21.30;99.90
9987;DHT22;5033;46.310;11.214;2022-08-21T00:16:55;21.20;99.90
9987;DHT22;5033;46.310;11.214;2022-08-21T00:19:22;21.20;99.90
9987;DHT22;5033;46.310;11.214;2022-08-21T00:21:52;21.20;99.90
9987;DHT22;5033;46.310;11.214;2022-08-21T00:24:19;21.10;99.90
9987;DHT22;5033;46.310;11.214;2022-08-21T00:26:50;21.10;99.90
9987;DHT22;5033;46.310;11.214;2022-08-21T00:29:18;21.10;99.90
9987;DHT22;5033;46.310;11.214;2022-08-21T00:31:45;21.00;99.90
9987;DHT22;5033;46.310;11.214;2022-08-21T00:34:13;20.90;99.90
9987;DHT22;5033;46.310;11.214;2022-08-21T00:36:40;20.90;99.90
9987;DHT22;5033;46.310;11.214;2022-08-21T00:39:09;20.90;99.90
9987;DHT22;5033;46.310;11.214;2022-08-21T00:41:38;20.90;99.90
9987;DHT22;5033;46.310;11.214;2022-08-21T00:44:07;20.90;99.90
9987;DHT22;5033;46.310;11.214;2022-08-21T00:46:38;20.90;99.90
9987;DHT22;5033;46.310;11.214;2022-08-21T00:49:06;20.80;99.90
9987;DHT22;5033;46.310;11.214;2022-08-21T00:51:37;20.90;99.90
9987;DHT22;5033;46.310;11.214;2022-08-21T00:54:06;20.80;99.90
9987;DHT22;5033;46.310;11.214;2022-08-21T00:56:35;20.80;99.90
9987;DHT22;5033;46.310;11.214;2022-08-21T00:59:03;20.80;99.90
9987;DHT22;5033;46.310;11.214;2022-08-21T01:01:30;20.90;99.90
9987;DHT22;5033;46.310;11.214;2022-08-21T01:03:57;20.80;99.90
9987;DHT22;5033;46.310;11.214;2022-08-21T01:06:25;20.80;99.90
9987;DHT22;5033;46.310;11.214;2022-08-21T01:08:52;20.80;99.90
9987;DHT22;5033;46.310;11.214;2022-08-21T01:11:20;20.70;99.90
9987;DHT22;5033;46.310;11.214;2022-08-21T01:13:49;20.60;99.90
9987;DHT22;5033;46.310;11.214;2022-08-21T01:16:19;20.50;99.90
9987;DHT22;5033;46.310;11.214;2022-08-21T01:18:47;20.40;99.90
9987;DHT22;5033;46.310;11.214;2022-08-21T01:21:18;20.40;99.90
9987;DHT22;5033;46.310;11.214;2022-08-21T01:23:49;20.40;99.90
9987;DHT22;5033;46.310;11.214;2022-08-21T01:26:19;20.40;99.90
9987;DHT22;5033;46.310;11.214;2022-08-21T01:28:52;20.40;99.90
9987;DHT22;5033;46.310;11.214;2022-08-21T01:31:23;20.40;99.90
9987;DHT22;5033;46.310;11.214;2022-08-21T01:33:52;20.50;99.90
9987;DHT22;5033;46.310;11.214;2022-08-21T01:36:20;20.50;99.90
9987;DHT22;5033;46.310;11.214;2022-08-21T01:38:48;20.50;99.90
9987;DHT22;5033;46.310;11.214;2022-08-21T01:41:16;20.50;99.90
9987;DHT22;5033;46.310;11.214;2022-08-21T01:43:43;20.50;99.90
9987;DHT22;5033;46.310;11.214;2022-08-21T01:46:11;20.40;99.90
9987;DHT22;5033;46.310;11.214;2022-08-21T01:48:39;20.40;99.90
9987;DHT22;5033;46.310;11.214;2022-08-21T01:51:06;20.40;99.90
9987;DHT22;5033;46.310;11.214;2022-08-21T01:53:36;20.40;99.90
9987;DHT22;5033;46.310;11.214;2022-08-21T01:56:05;20.40;99.90
9987;DHT22;5033;46.310;11.214;2022-08-21T01:58:33;20.40;99.90
9987;DHT22;5033;46.310;11.214;2022-08-21T02:01:00;20.30;99.90
9987;DHT22;5033;46.310;11.214;2022-08-21T02:03:27;20.30;99.90
9987;DHT22;5033;46.310;11.214;2022-08-21T02:05:55;20.30;99.90
9987;DHT22;5033;46.310;11.214;2022-08-21T02:08:22;20.30;99.90
9987;DHT22;5033;46.310;11.214;2022-08-21T02:10:52;20.30;99.90
9987;DHT22;5033;46.310;11.214;2022-08-21T02:13:19;20.20;99.90
9987;DHT22;5033;46.310;11.214;2022-08-21T02:15:46;20.20;99.90
9987;DHT22;5033;46.310;11.214;2022-08-21T02:18:14;20.30;99.90
9987;DHT22;5033;46.310;11.214;2022-08-21T02:20:45;20.30;99.90
9987;DHT22;5033;46.310;11.214;2022-08-21T02:23:13;20.30;99.90
9987;DHT22;5033;46.310;11.214;2022-08-21T02:25:40;20.30;99.90
9987;DHT22;5033;46.310;11.214;2022-08-21T02:28:12;20.20;99.90
9987;DHT22;5033;46.310;11.214;2022-08-21T02:30:41;20.20;99.90
9987;DHT22;5033;46.310;11.214;2022-08-21T02:33:10;20.20;99.90
9987;DHT22;5033;46.310;11.214;2022-08-21T02:35:39;20.10;99.90
9987;DHT22;5033;46.310;11.214;2022-08-21T02:38:12;20.10;99.90
9987;DHT22;5033;46.310;11.214;2022-08-21T02:40:42;20.00;99.90
9987;DHT22;5033;46.310;11.214;2022-08-21T02:43:11;19.90;99.90
9987;DHT22;5033;46.310;11.214;2022-08-21T02:45:39;19.90;99.90
9987;DHT22;5033;46.310;11.214;2022-08-21T02:48:08;19.90;99.90
9987;DHT22;5033;46.310;11.214;2022-08-21T02:50:42;20.00;99.90
9987;DHT22;5033;46.310;11.214;2022-08-21T02:53:11;20.00;99.90
9987;DHT22;5033;46.310;11.214;2022-08-21T02:55:43;20.00;99.90
9987;DHT22;5033;46.310;11.214;2022-08-21T02:58:12;20.00;99.90
9987;DHT22;5033;46.310;11.214;2022-08-21T03:00:40;20.00;99.90
9987;DHT22;5033;46.310;11.214;2022-08-21T03:03:09;20.00;99.90
9987;DHT22;5033;46.310;11.214;2022-08-21T03:05:38;20.00;99.90
9987;DHT22;5033;46.310;11.214;2022-08-21T03:08:07;20.00;99.90
9987;DHT22;5033;46.310;11.214;2022-08-21T03:10:36;19.90;99.90
9987;DHT22;5033;46.310;11.214;2022-08-21T03:13:05;19.90;99.90
9987;DHT22;5033;46.310;11.214;2022-08-21T03:15:34;19.80;99.90
9987;DHT22;5033;46.310;11.214;2022-08-21T03:18:03;19.80;99.90
9987;DHT22;5033;46.310;11.214;2022-08-21T03:20:34;19.80;99.90
9987;DHT22;5033;46.310;11.214;2022-08-21T03:23:04;19.70;99.90
9987;DHT22;5033;46.310;11.214;2022-08-21T03:25:33;19.60;99.90
9987;DHT22;5033;46.310;11.214;2022-08-21T03:28:02;19.60;99.90
9987;DHT22;5033;46.310;11.214;2022-08-21T03:30:29;19.60;99.90
9987;DHT22;5033;46.310;11.214;2022-08-21T03:32:58;19.60;99.90
9987;DHT22;5033;46.310;11.214;2022-08-21T03:35:25;19.60;99.90
9987;DHT22;5033;46.310;11.214;2022-08-21T03:37:53;19.60;99.90
9987;DHT22;5033;46.310;11.214;2022-08-21T03:40:22;19.60;99.90
9987;DHT22;5033;46.310;11.214;2022-08-21T03:42:50;19.60;99.90
9987;DHT22;5033;46.310;11.214;2022-08-21T03:45:18;19.60;99.90
9987;DHT22;5033;46.310;11.214;2022-08-21T03:47:54;19.60;99.90
9987;DHT22;5033;46.310;11.214;2022-08-21T03:50:25;19.60;99.90
9987;DHT22;5033;46.310;11.214;2022-08-21T03:52:53;19.70;99.90
9987;DHT22;5033;46.310;11.214;2022-08-21T03:55:20;19.60;99.90
9987;DHT22;5033;46.310;11.214;2022-08-21T03:57:47;19.60;99.90
9987;DHT22;5033;46.310;11.214;2022-08-21T04:00:16;19.60;99.90
9987;DHT22;5033;46.310;11.214;2022-08-21T04:02:45;19.50;99.90
9987;DHT22;5033;46.310;11.214;2022-08-21T04:05:13;19.50;99.90
9987;DHT22;5033;46.310;11.214;2022-08-21T04:07:54;19.50;99.90
9987;DHT22;5033;46.310;11.214;2022-08-21T04:10:22;19.50;99.90
9987;DHT22;5033;46.310;11.214;2022-08-21T04:12:51;19.50;99.90
9987;DHT22;5033;46.310;11.214;2022-08-21T04:15:18;19.50;99.90
9987;DHT22;5033;46.310;11.214;2022-08-21T04:17:46;19.50;99.90
9987;DHT22;5033;46.310;11.214;2022-08-21T04:20:14;19.50;99.90
9987;DHT22;5033;46.310;11.214;2022-08-21T04:22:41;19.40;99.90
9987;DHT22;5033;46.310;11.214;2022-08-21T04:25:12;19.40;99.90
9987;DHT22;5033;46.310;11.214;2022-08-21T04:27:39;19.40;99.90
9987;DHT22;5033;46.310;11.214;2022-08-21T04:30:08;19.40;99.90
9987;DHT22;5033;46.310;11.214;2022-08-21T04:32:36;19.50;99.90
9987;DHT22;5033;46.310;11.214;2022-08-21T04:35:05;19.40;99.90
9987;DHT22;5033;46.310;11.214;2022-08-21T04:37:33;19.40;99.90
9987;DHT22;5033;46.310;11.214;2022-08-21T04:40:00;19.30;99.90
9987;DHT22;5033;46.310;11.214;2022-08-21T04:42:29;19.30;99.90
9987;DHT22;5033;46.310;11.214;2022-08-21T04:44:56;19.30;99.90
9987;DHT22;5033;46.310;11.214;2022-08-21T04:47:24;19.30;99.90
9987;DHT22;5033;46.310;11.214;2022-08-21T04:49:51;19.30;99.90
9987;DHT22;5033;46.310;11.214;2022-08-21T04:52:21;19.40;99.90
9987;DHT22;5033;46.310;11.214;2022-08-21T04:54:50;19.40;99.90
9987;DHT22;5033;46.310;11.214;2022-08-21T04:57:18;19.50;99.90
9987;DHT22;5033;46.310;11.214;2022-08-21T04:59:49;19.50;99.90
9987;DHT22;5033;46.310;11.214;2022-08-21T05:02:17;19.50;99.90
9987;DHT22;5033;46.310;11.214;2022-08-21T05:04:49;19.40;99.90
9987;DHT22;5033;46.310;11.214;2022-08-21T05:07:22;19.50;99.90
9987;DHT22;5033;46.310;11.214;2022-08-21T05:09:50;19.70;99.90
9987;DHT22;5033;46.310;11.214;2022-08-21T05:12:18;20.00;99.90
9987;DHT22;5033;46.310;11.214;2022-08-21T05:14:47;20.30;99.90
9987;DHT22;5033;46.310;11.214;2022-08-21T05:17:14;20.60;99.90
9987;DHT22;5033;46.310;11.214;2022-08-21T05:19:41;20.80;99.90
9987;DHT22;5033;46.310;11.214;2022-08-21T05:22:08;21.00;99.90
9987;DHT22;5033;46.310;11.214;2022-08-21T05:24:36;21.20;99.90
9987;DHT22;5033;46.310;11.214;2022-08-21T05:27:04;21.40;99.90
9987;DHT22;5033;46.310;11.214;2022-08-21T05:29:32;21.50;99.90
9987;DHT22;5033;46.310;11.214;2022-08-21T05:32:08;21.50;99.90
9987;DHT22;5033;46.310;11.214;2022-08-21T05:34:35;21.80;99.90
9987;DHT22;5033;46.310;11.214;2022-08-21T05:37:02;22.00;99.90
9987;DHT22;5033;46.310;11.214;2022-08-21T05:39:29;22.30;99.90
9987;DHT22;5033;46.310;11.214;2022-08-21T05:41:56;22.40;99.90
9987;DHT22;5033;46.310;11.214;2022-08-21T05:44:23;22.50;99.90
9987;DHT22;5033;46.310;11.214;2022-08-21T05:46:50;22.70;99.90
9987;DHT22;5033;46.310;11.214;2022-08-21T05:49:19;22.90;99.90
9987;DHT22;5033;46.310;11.214;2022-08-21T05:51:46;23.00;99.90
9987;DHT22;5033;46.310;11.214;2022-08-21T05:54:13;23.00;99.90
9987;DHT22;5033;46.310;11.214;2022-08-21T05:56:40;23.10;99.90
9987;DHT22;5033;46.310;11.214;2022-08-21T05:59:10;22.90;99.90
9987;DHT22;5033;46.310;11.214;2022-08-21T06:01:39;22.80;99.90
9987;DHT22;5033;46.310;11.214;2022-08-21T06:04:07;22.80;99.90
9987;DHT22;5033;46.310;11.214;2022-08-21T06:06:35;22.90;99.90
9987;DHT22;5033;46.310;11.214;2022-08-21T06:09:02;22.90;99.90
9987;DHT22;5033;46.310;11.214;2022-08-21T06:11:30;22.80;99.90
9987;DHT22;5033;46.310;11.214;2022-08-21T06:13:58;22.80;99.90
9987;DHT22;5033;46.310;11.214;2022-08-21T06:16:27;22.90;99.90
9987;DHT22;5033;46.310;11.214;2022-08-21T06:18:54;22.90;99.90
9987;DHT22;5033;46.310;11.214;2022-08-21T06:21:21;23.00;99.90
9987;DHT22;5033;46.310;11.214;2022-08-21T06:23:49;23.00;99.90
9987;DHT22;5033;46.310;11.214;2022-08-21T06:26:17;22.80;99.90
9987;DHT22;5033;46.310;11.214;2022-08-21T06:28:44;22.80;99.90
9987;DHT22;5033;46.310;11.214;2022-08-21T06:31:13;22.80;99.90
9987;DHT22;5033;46.310;11.214;2022-08-21T06:33:40;22.80;99.90
9987;DHT22;5033;46.310;11.214;2022-08-21T06:36:08;22.80;99.90
9987;DHT22;5033;46.310;11.214;2022-08-21T06:38:35;22.90;99.90
9987;DHT22;5033;46.310;11.214;2022-08-21T06:41:04;23.10;99.90
9987;DHT22;5033;46.310;11.214;2022-08-21T06:43:32;23.50;99.90
9987;DHT22;5033;46.310;11.214;2022-08-21T06:46:00;23.80;99.90
9987;DHT22;5033;46.310;11.214;2022-08-21T06:48:27;24.00;99.90
9987;DHT22;5033;46.310;11.214;2022-08-21T06:50:55;24.30;99.90
9987;DHT22;5033;46.310;11.214;2022-08-21T06:53:22;24.40;99.90
9987;DHT22;5033;46.310;11.214;2022-08-21T06:55:49;24.40;99.90
9987;DHT22;5033;46.310;11.214;2022-08-21T06:58:18;24.20;99.90
9987;DHT22;5033;46.310;11.214;2022-08-21T07:00:47;24.40;99.90
9987;DHT22;5033;46.310;11.214;2022-08-21T07:03:20;24.60;99.90
9987;DHT22;5033;46.310;11.214;2022-08-21T07:05:48;24.90;99.90
9987;DHT22;5033;46.310;11.214;2022-08-21T07:08:15;25.10;99.90
9987;DHT22;5033;46.310;11.214;2022-08-21T07:10:42;25.40;99.90
9987;DHT22;5033;46.310;11.214;2022-08-21T07:13:10;25.50;99.90
9987;DHT22;5033;46.310;11.214;2022-08-21T07:15:38;25.70;99.90
9987;DHT22;5033;46.310;11.214;2022-08-21T07:18:06;25.70;99.90
9987;DHT22;5033;46.310;11.214;2022-08-21T07:20:33;25.60;99.90
9987;DHT22;5033;46.310;11.214;2022-08-21T07:23:03;25.60;99.90
9987;DHT22;5033;46.310;11.214;2022-08-21T07:25:31;25.70;99.90
9987;DHT22;5033;46.310;11.214;2022-08-21T07:27:59;25.70;99.90
9987;DHT22;5033;46.310;11.214;2022-08-21T07:30:26;25.60;99.90
9987;DHT22;5033;46.310;11.214;2022-08-21T07:32:55;25.60;99.90
9987;DHT22;5033;46.310;11.214;2022-08-21T07:35:23;25.70;99.90
9987;DHT22;5033;46.310;11.214;2022-08-21T07:37:50;25.90;99.90
9987;DHT22;5033;46.310;11.214;2022-08-21T07:40:18;26.20;99.90
9987;DHT22;5033;46.310;11.214;2022-08-21T07:42:47;26.50;99.90
9987;DHT22;5033;46.310;11.214;2022-08-21T07:45:18;26.40;99.90
9987;DHT22;5033;46.310;11.214;2022-08-21T07:47:45;26.40;99.90
9987;DHT22;5033;46.310;11.214;2022-08-21T07:50:14;26.30;99.90
9987;DHT22;5033;46.310;11.214;2022-08-21T07:52:42;26.00;99.90
9987;DHT22;5033;46.310;11.214;2022-08-21T07:55:12;25.90;99.90
9987;DHT22;5033;46.310;11.214;2022-08-21T07:57:39;26.10;99.90
9987;DHT22;5033;46.310;11.214;2022-08-21T08:00:10;26.20;99.90
9987;DHT22;5033;46.310;11.214;2022-08-21T08:02:37;26.40;99.90
9987;DHT22;5033;46.310;11.214;2022-08-21T08:05:07;26.20;99.90
9987;DHT22;5033;46.310;11.214;2022-08-21T08:07:36;26.00;99.90
9987;DHT22;5033;46.310;11.214;2022-08-21T08:10:07;25.80;99.90
9987;DHT22;5033;46.310;11.214;2022-08-21T08:12:34;25.70;99.90
9987;DHT22;5033;46.310;11.214;2022-08-21T08:15:03;25.60;99.90
9987;DHT22;5033;46.310;11.214;2022-08-21T08:17:30;25.50;99.90
9987;DHT22;5033;46.310;11.214;2022-08-21T08:19:58;25.50;99.90
9987;DHT22;5033;46.310;11.214;2022-08-21T08:22:26;25.50;99.90
9987;DHT22;5033;46.310;11.214;2022-08-21T08:24:55;25.50;99.90
9987;DHT22;5033;46.310;11.214;2022-08-21T08:27:22;25.90;99.90
9987;DHT22;5033;46.310;11.214;2022-08-21T08:29:49;25.80;99.90
9987;DHT22;5033;46.310;11.214;2022-08-21T08:32:17;25.80;99.90
9987;DHT22;5033;46.310;11.214;2022-08-21T08:34:44;26.00;99.90
9987;DHT22;5033;46.310;11.214;2022-08-21T08:37:12;26.20;99.90
9987;DHT22;5033;46.310;11.214;2022-08-21T08:39:39;26.60;99.90
9987;DHT22;5033;46.310;11.214;2022-08-21T08:42:11;26.70;99.90
9987;DHT22;5033;46.310;11.214;2022-08-21T08:44:40;26.90;99.90
9987;DHT22;5033;46.310;11.214;2022-08-21T08:47:08;27.10;99.90
9987;DHT22;5033;46.310;11.214;2022-08-21T08:49:39;27.20;99.90
9987;DHT22;5033;46.310;11.214;2022-08-21T08:52:17;27.30;99.90
9987;DHT22;5033;46.310;11.214;2022-08-21T08:54:49;27.40;99.90
9987;DHT22;5033;46.310;11.214;2022-08-21T08:57:20;27.50;99.90
9987;DHT22;5033;46.310;11.214;2022-08-21T08:59:52;27.70;99.90
9987;DHT22;5033;46.310;11.214;2022-08-21T09:02:21;27.60;99.90
9987;DHT22;5033;46.310;11.214;2022-08-21T09:04:50;27.60;99.90
9987;DHT22;5033;46.310;11.214;2022-08-21T09:07:24;27.60;99.90
9987;DHT22;5033;46.310;11.214;2022-08-21T09:10:04;27.40;99.90
9987;DHT22;5033;46.310;11.214;2022-08-21T09:12:39;27.40;99.90
9987;DHT22;5033;46.310;11.214;2022-08-21T09:15:19;27.50;99.90
9987;DHT22;5033;46.310;11.214;2022-08-21T09:18:05;27.50;99.90
9987;DHT22;5033;46.310;11.214;2022-08-21T09:20:38;27.80;99.90
9987;DHT22;5033;46.310;11.214;2022-08-21T09:23:14;27.80;99.90
9987;DHT22;5033;46.310;11.214;2022-08-21T09:25:53;27.80;99.90
9987;DHT22;5033;46.310;11.214;2022-08-21T09:28:23;28.20;99.90
9987;DHT22;5033;46.310;11.214;2022-08-21T09:30:54;28.40;99.90
9987;DHT22;5033;46.310;11.214;2022-08-21T09:33:23;28.50;99.90
9987;DHT22;5033;46.310;11.214;2022-08-21T09:35:52;28.40;99.90
9987;DHT22;5033;46.310;11.214;2022-08-21T09:38:26;28.30;99.90
9987;DHT22;5033;46.310;11.214;2022-08-21T09:40:58;28.50;99.90
9987;DHT22;5033;46.310;11.214;2022-08-21T09:43:27;28.50;99.90
9987;DHT22;5033;46.310;11.214;2022-08-21T09:46:05;28.40;99.90
9987;DHT22;5033;46.310;11.214;2022-08-21T09:48:40;28.30;99.90
9987;DHT22;5033;46.310;11.214;2022-08-21T09:51:10;28.30;99.90
9987;DHT22;5033;46.310;11.214;2022-08-21T09:53:42;28.40;99.90
9987;DHT22;5033;46.310;11.214;2022-08-21T09:56:22;28.50;99.90
9987;DHT22;5033;46.310;11.214;2022-08-21T09:59:18;28.70;99.90
9987;DHT22;5033;46.310;11.214;2022-08-21T10:01:48;28.80;99.90
9987;DHT22;5033;46.310;11.214;2022-08-21T10:04:20;28.90;99.90
9987;DHT22;5033;46.310;11.214;2022-08-21T10:06:48;28.80;99.90
9987;DHT22;5033;46.310;11.214;2022-08-21T10:09:17;28.90;99.90
9987;DHT22;5033;46.310;11.214;2022-08-21T10:11:49;29.00;99.90
9987;DHT22;5033;46.310;11.214;2022-08-21T10:14:39;29.10;99.90
9987;DHT22;5033;46.310;11.214;2022-08-21T10:17:16;29.20;99.90
9987;DHT22;5033;46.310;11.214;2022-08-21T10:19:51;29.20;99.90
9987;DHT22;5033;46.310;11.214;2022-08-21T10:22:32;29.20;99.90
9987;DHT22;5033;46.310;11.214;2022-08-21T10:25:08;29.50;99.90
9987;DHT22;5033;46.310;11.214;2022-08-21T10:27:44;29.70;99.90
9987;DHT22;5033;46.310;11.214;2022-08-21T10:30:19;29.90;99.90
9987;DHT22;5033;46.310;11.214;2022-08-21T10:33:01;29.90;99.90
9987;DHT22;5033;46.310;11.214;2022-08-21T10:35:34;29.80;99.90
9987;DHT22;5033;46.310;11.214;2022-08-21T10:38:32;30.00;99.90
9987;DHT22;5033;46.310;11.214;2022-08-21T10:41:05;29.90;99.90
9987;DHT22;5033;46.310;11.214;2022-08-21T10:43:44;29.50;99.90
9987;DHT22;5033;46.310;11.214;2022-08-21T10:46:20;29.40;99.90
9987;DHT22;5033;46.310;11.214;2022-08-21T10:48:53;29.60;99.90
9987;DHT22;5033;46.310;11.214;2022-08-21T10:51:28;29.70;99.90
9987;DHT22;5033;46.310;11.214;2022-08-21T10:54:05;29.90;99.80
9987;DHT22;5033;46.310;11.214;2022-08-21T10:56:36;30.00;99.40
9987;DHT22;5033;46.310;11.214;2022-08-21T10:59:25;30.20;98.70
9987;DHT22;5033;46.310;11.214;2022-08-21T11:01:58;30.30;96.10
9987;DHT22;5033;46.310;11.214;2022-08-21T11:04:31;30.10;96.10
9987;DHT22;5033;46.310;11.214;2022-08-21T11:07:07;30.10;97.10
9987;DHT22;5033;46.310;11.214;2022-08-21T11:09:40;30.20;99.50
9987;DHT22;5033;46.310;11.214;2022-08-21T11:12:22;30.50;99.10
9987;DHT22;5033;46.310;11.214;2022-08-21T11:17:27;30.90;94.90
9987;DHT22;5033;46.310;11.214;2022-08-21T11:20:02;30.80;90.60
9987;DHT22;5033;46.310;11.214;2022-08-21T11:22:37;30.80;89.60
9987;DHT22;5033;46.310;11.214;2022-08-21T11:25:09;30.50;86.90
9987;DHT22;5033;46.310;11.214;2022-08-21T11:27:42;30.60;90.30
9987;DHT22;5033;46.310;11.214;2022-08-21T11:30:11;30.70;91.10
9987;DHT22;5033;46.310;11.214;2022-08-21T11:32:56;30.80;91.40
9987;DHT22;5033;46.310;11.214;2022-08-21T11:35:32;30.90;81.50
9987;DHT22;5033;46.310;11.214;2022-08-21T11:38:14;31.00;85.00
9987;DHT22;5033;46.310;11.214;2022-08-21T11:40:53;31.00;83.60
9987;DHT22;5033;46.310;11.214;2022-08-21T11:43:27;31.10;79.30
9987;DHT22;5033;46.310;11.214;2022-08-21T11:46:09;31.10;79.70
9987;DHT22;5033;46.310;11.214;2022-08-21T11:48:45;31.10;79.80
9987;DHT22;5033;46.310;11.214;2022-08-21T11:51:27;30.90;78.10
9987;DHT22;5033;46.310;11.214;2022-08-21T11:54:03;30.90;81.00
9987;DHT22;5033;46.310;11.214;2022-08-21T11:56:35;31.20;82.10
9987;DHT22;5033;46.310;11.214;2022-08-21T11:59:10;31.50;79.80
9987;DHT22;5033;46.310;11.214;2022-08-21T12:01:43;31.70;77.80
9987;DHT22;5033;46.310;11.214;2022-08-21T12:04:22;31.40;78.60
9987;DHT22;5033;46.310;11.214;2022-08-21T12:06:51;31.50;72.30
9987;DHT22;5033;46.310;11.214;2022-08-21T12:09:34;31.30;74.60
9987;DHT22;5033;46.310;11.214;2022-08-21T12:12:05;31.30;70.60
9987;DHT22;5033;46.310;11.214;2022-08-21T12:14:38;31.30;74.20
9987;DHT22;5033;46.310;11.214;2022-08-21T12:17:08;31.40;71.90
9987;DHT22;5033;46.310;11.214;2022-08-21T12:19:44;31.30;72.80
9987;DHT22;5033;46.310;11.214;2022-08-21T12:22:14;31.40;74.30
9987;DHT22;5033;46.310;11.214;2022-08-21T12:24:43;31.50;73.00
9987;DHT22;5033;46.310;11.214;2022-08-21T12:27:27;31.70;73.80
9987;DHT22;5033;46.310;11.214;2022-08-21T12:29:59;31.80;70.80
9987;DHT22;5033;46.310;11.214;2022-08-21T12:32:28;31.80;73.30
9987;DHT22;5033;46.310;11.214;2022-08-21T12:35:06;31.80;73.50
9987;DHT22;5033;46.310;11.214;2022-08-21T12:37:38;31.80;71.90
9987;DHT22;5033;46.310;11.214;2022-08-21T12:40:14;31.80;69.10
9987;DHT22;5033;46.310;11.214;2022-08-21T12:42:48;31.80;70.00
9987;DHT22;5033;46.310;11.214;2022-08-21T12:45:20;31.80;70.70
9987;DHT22;5033;46.310;11.214;2022-08-21T12:47:55;31.90;70.00
9987;DHT22;5033;46.310;11.214;2022-08-21T12:50:35;32.00;70.20
9987;DHT22;5033;46.310;11.214;2022-08-21T12:53:07;31.90;69.50
9987;DHT22;5033;46.310;11.214;2022-08-21T12:55:41;31.80;69.10
9987;DHT22;5033;46.310;11.214;2022-08-21T12:58:17;31.90;70.00
9987;DHT22;5033;46.310;11.214;2022-08-21T13:00:49;32.00;69.30
9987;DHT22;5033;46.310;11.214;2022-08-21T13:03:17;32.00;70.60
9987;DHT22;5033;46.310;11.214;2022-08-21T13:05:46;32.00;69.70
9987;DHT22;5033;46.310;11.214;2022-08-21T13:08:14;32.10;70.10
9987;DHT22;5033;46.310;11.214;2022-08-21T13:10:41;32.20;70.00
9987;DHT22;5033;46.310;11.214;2022-08-21T13:13:16;32.30;73.30
9987;DHT22;5033;46.310;11.214;2022-08-21T13:15:44;32.60;71.20
9987;DHT22;5033;46.310;11.214;2022-08-21T13:18:20;32.90;71.70
9987;DHT22;5033;46.310;11.214;2022-08-21T13:20:49;33.00;69.40
9987;DHT22;5033;46.310;11.214;2022-08-21T13:23:22;32.70;67.50
9987;DHT22;5033;46.310;11.214;2022-08-21T13:25:50;32.60;66.30
9987;DHT22;5033;46.310;11.214;2022-08-21T13:28:17;32.50;67.50
9987;DHT22;5033;46.310;11.214;2022-08-21T13:30:48;32.40;66.50
9987;DHT22;5033;46.310;11.214;2022-08-21T13:33:19;32.30;64.80
9987;DHT22;5033;46.310;11.214;2022-08-21T13:36:03;32.30;65.90
9987;DHT22;5033;46.310;11.214;2022-08-21T13:38:44;32.20;61.00
9987;DHT22;5033;46.310;11.214;2022-08-21T13:41:20;32.20;65.00
9987;DHT22;5033;46.310;11.214;2022-08-21T13:43:50;32.20;64.80
9987;DHT22;5033;46.310;11.214;2022-08-21T13:46:18;32.20;66.00
9987;DHT22;5033;46.310;11.214;2022-08-21T13:48:49;32.30;65.30
9987;DHT22;5033;46.310;11.214;2022-08-21T13:51:18;32.50;68.30
9987;DHT22;5033;46.310;11.214;2022-08-21T13:53:48;32.60;68.70
9987;DHT22;5033;46.310;11.214;2022-08-21T13:56:25;32.80;67.90
9987;DHT22;5033;46.310;11.214;2022-08-21T13:58:54;32.60;66.70
9987;DHT22;5033;46.310;11.214;2022-08-21T14:01:23;32.70;68.70
9987;DHT22;5033;46.310;11.214;2022-08-21T14:03:56;32.70;67.40
9987;DHT22;5033;46.310;11.214;2022-08-21T14:06:34;32.60;65.20
9987;DHT22;5033;46.310;11.214;2022-08-21T14:09:09;32.60;64.00
9987;DHT22;5033;46.310;11.214;2022-08-21T14:11:41;32.60;64.20
9987;DHT22;5033;46.310;11.214;2022-08-21T14:14:19;32.80;66.90
9987;DHT22;5033;46.310;11.214;2022-08-21T14:16:54;32.90;65.90
9987;DHT22;5033;46.310;11.214;2022-08-21T14:19:23;33.10;66.80
9987;DHT22;5033;46.310;11.214;2022-08-21T14:21:52;32.80;63.30
9987;DHT22;5033;46.310;11.214;2022-08-21T14:24:29;32.90;64.80
9987;DHT22;5033;46.310;11.214;2022-08-21T14:27:00;33.00;63.00
9987;DHT22;5033;46.310;11.214;2022-08-21T14:29:33;33.00;64.60
9987;DHT22;5033;46.310;11.214;2022-08-21T14:32:11;33.00;64.10
9987;DHT22;5033;46.310;11.214;2022-08-21T14:34:39;32.90;63.10
9987;DHT22;5033;46.310;11.214;2022-08-21T14:37:07;32.80;64.10
9987;DHT22;5033;46.310;11.214;2022-08-21T14:39:34;32.80;64.50
9987;DHT22;5033;46.310;11.214;2022-08-21T14:42:02;32.80;65.80
9987;DHT22;5033;46.310;11.214;2022-08-21T14:44:29;32.70;65.30
9987;DHT22;5033;46.310;11.214;2022-08-21T14:46:58;32.60;64.40
9987;DHT22;5033;46.310;11.214;2022-08-21T14:49:27;32.50;65.50
9987;DHT22;5033;46.310;11.214;2022-08-21T14:51:54;32.40;65.80
9987;DHT22;5033;46.310;11.214;2022-08-21T14:54:25;32.40;65.40
9987;DHT22;5033;46.310;11.214;2022-08-21T14:56:52;32.30;64.50
9987;DHT22;5033;46.310;11.214;2022-08-21T14:59:21;32.40;65.80
9987;DHT22;5033;46.310;11.214;2022-08-21T15:01:51;32.10;65.30
9987;DHT22;5033;46.310;11.214;2022-08-21T15:04:18;32.00;65.10
9987;DHT22;5033;46.310;11.214;2022-08-21T15:06:45;32.00;64.40
9987;DHT22;5033;46.310;11.214;2022-08-21T15:09:12;32.10;65.90
9987;DHT22;5033;46.310;11.214;2022-08-21T15:11:42;32.00;66.00
9987;DHT22;5033;46.310;11.214;2022-08-21T15:14:20;32.10;65.80
9987;DHT22;5033;46.310;11.214;2022-08-21T15:16:49;31.90;65.20
9987;DHT22;5033;46.310;11.214;2022-08-21T15:19:17;31.50;67.20
9987;DHT22;5033;46.310;11.214;2022-08-21T15:21:44;31.70;68.80
9987;DHT22;5033;46.310;11.214;2022-08-21T15:24:14;32.00;69.00
9987;DHT22;5033;46.310;11.214;2022-08-21T15:26:43;32.20;68.20
9987;DHT22;5033;46.310;11.214;2022-08-21T15:29:12;32.30;67.90
9987;DHT22;5033;46.310;11.214;2022-08-21T15:31:51;32.30;67.90
9987;DHT22;5033;46.310;11.214;2022-08-21T15:34:26;32.20;68.60
9987;DHT22;5033;46.310;11.214;2022-08-21T15:36:54;32.30;69.60
9987;DHT22;5033;46.310;11.214;2022-08-21T15:39:25;32.40;70.00
9987;DHT22;5033;46.310;11.214;2022-08-21T15:41:54;32.30;70.20
9987;DHT22;5033;46.310;11.214;2022-08-21T15:44:21;32.20;70.50
9987;DHT22;5033;46.310;11.214;2022-08-21T15:46:48;32.00;70.20
9987;DHT22;5033;46.310;11.214;2022-08-21T15:49:15;31.80;70.80
9987;DHT22;5033;46.310;11.214;2022-08-21T15:51:43;31.50;71.00
9987;DHT22;5033;46.310;11.214;2022-08-21T15:54:10;31.10;71.10
9987;DHT22;5033;46.310;11.214;2022-08-21T15:56:38;30.70;71.30
9987;DHT22;5033;46.310;11.214;2022-08-21T15:59:13;30.30;72.00
9987;DHT22;5033;46.310;11.214;2022-08-21T16:01:42;30.00;70.80
9987;DHT22;5033;46.310;11.214;2022-08-21T16:04:09;29.70;71.80
9987;DHT22;5033;46.310;11.214;2022-08-21T16:06:37;29.50;71.50
9987;DHT22;5033;46.310;11.214;2022-08-21T16:09:04;29.40;71.60